Maria — SV7156 — position and weather

sailwx.info

Track history (hours):
 
Tides and Currents Weather Stations Pressure Air Temp Water Temp Dewpoint Dewpoint Depression Visibility Wind Speed Wind Dir Waves Ship Positions

Maria

Last reported at 2014-Dec-23 00:33 UTC. Time now 2014-Dec-23 00:55 UTC.
Position N 37°53' E 023°33'.

Length 74 m; draft 4.5 m.

Type: Ship. MMSI: 237493000.

Date/timePositionNaut miles runAvg speedWind from/ knotsBaromVisibWave heightAir tempDewpointWater temp
2014-Dec-23 00:33N 37°53' E 023°33'0 0.0
2014-Dec-22 23:33N 37°53' E 023°33'0 0.0
2014-Dec-22 22:33N 37°53' E 023°33'0 0.0
2014-Dec-22 21:33N 37°53' E 023°33'0 0.0
2014-Dec-22 20:33N 37°53' E 023°33'4 3.9
2014-Dec-22 19:33N 37°57' E 023°33'5 4.6
2014-Dec-22 18:32N 38°02' E 023°36'0 0.0
2014-Dec-22 17:33N 38°02' E 023°36'0 0.0
2014-Dec-22 16:33N 38°02' E 023°36'0 0.0
2014-Dec-22 15:33N 38°02' E 023°36'1 0.7
2014-Dec-22 14:34N 38°01' E 023°35'4 3.7
2014-Dec-22 13:34N 37°58' E 023°35'5 4.8
2014-Dec-22 12:34N 37°53' E 023°32'0 0.0
2014-Dec-22 11:34N 37°53' E 023°32'0 0.0
2014-Dec-22 10:34N 37°53' E 023°32'0 0.0
2014-Dec-22 09:33N 37°53' E 023°32'5 4.6
2014-Dec-22 08:33N 37°57' E 023°35'  
2014-Dec-18 16:34N 37°55' E 023°34'5 5.0
2014-Dec-18 15:33N 37°52' E 023°30'0 0.0
2014-Dec-18 14:33N 37°52' E 023°30'0 0.1
2014-Dec-18 13:33N 37°52' E 023°30'0 0.0
2014-Dec-18 12:33N 37°52' E 023°30'1 0.5
2014-Dec-18 11:33N 37°52' E 023°30'6 6.3
2014-Dec-18 10:33N 37°57' E 023°35'0 0.3
2014-Dec-18 09:33N 37°58' E 023°35'4 4.3
2014-Dec-18 08:34N 37°54' E 023°33'4 4.0
2014-Dec-18 07:33N 37°50' E 023°31'0 0.1
2014-Dec-18 06:33N 37°50' E 023°31'0 0.1
2014-Dec-18 05:33N 37°50' E 023°31'0 0.1
2014-Dec-18 04:33N 37°50' E 023°31'0 0.0
2014-Dec-18 03:34N 37°50' E 023°31'6 5.6
2014-Dec-18 02:33N 37°55' E 023°34'2 2.4
2014-Dec-18 01:33N 37°57' E 023°35'0 0.0
2014-Dec-18 00:34N 37°57' E 023°35'0 0.0
2014-Dec-17 23:33N 37°57' E 023°35'0 0.0
2014-Dec-17 22:33N 37°57' E 023°35'0 0.0
2014-Dec-17 21:33N 37°57' E 023°35'0 0.0
2014-Dec-17 20:33N 37°57' E 023°35'0 0.0
2014-Dec-17 19:33N 37°57' E 023°35'1 0.1
2014-Dec-17 14:12N 37°58' E 023°35'0 0.0
2014-Dec-17 13:31N 37°58' E 023°35'0 0.0
2014-Dec-17 12:33N 37°58' E 023°35'5 3.4
2014-Dec-17 11:09N 38°02' E 023°32'0 0.3
2014-Dec-17 10:05N 38°02' E 023°31'2 0.9
2014-Dec-17 07:31N 38°01' E 023°34'0 0.1
2014-Dec-17 04:04N 38°02' E 023°35'0 0.0
2014-Dec-17 01:30N 38°02' E 023°35'0 0.0
2014-Dec-16 11:30N 38°02' E 023°35'0 0.0
2014-Dec-16 10:33N 38°02' E 023°35'0 0.0
2014-Dec-16 09:33N 38°02' E 023°35'4 4.4
2014-Dec-16 08:33N 37°58' E 023°33'1 1.3
2014-Dec-16 07:33N 37°58' E 023°35'0 0.1
2014-Dec-16 06:33N 37°58' E 023°35'  
2014-Dec-13 18:34N 37°57' E 023°35'4 4.4
2014-Dec-13 17:33N 37°53' E 023°33'0 0.0
2014-Dec-13 16:34N 37°53' E 023°33'0 0.0
2014-Dec-13 15:34N 37°53' E 023°33'4 4.4
2014-Dec-13 14:34N 37°57' E 023°35'1 0.2
2014-Dec-13 05:33N 37°55' E 023°34'4 3.8
2014-Dec-13 04:33N 37°52' E 023°32'0 0.0
2014-Dec-13 03:33N 37°52' E 023°32'0 0.0
2014-Dec-13 02:33N 37°52' E 023°32'0 0.0
2014-Dec-13 01:33N 37°52' E 023°32'  
Track history (hours):
 
Tides and Currents Weather Stations Pressure Air Temp Water Temp Dewpoint Dewpoint Depression Visibility Wind Speed Wind Dir Waves Ship Positions

Maria

Last reported at 2014-Dec-23 00:33 UTC. Time now 2014-Dec-23 00:55 UTC.
Position N 37°53' E 023°33'.

Length 74 m; draft 4.5 m.

Type: Ship. MMSI: 237493000.

Date/timePositionNaut miles runAvg speedWind from/ knotsBaromVisibWave heightAir tempDewpointWater temp
2014-Dec-23 00:33N 37°53' E 023°33'0 0.0
2014-Dec-22 23:33N 37°53' E 023°33'0 0.0
2014-Dec-22 22:33N 37°53' E 023°33'0 0.0
2014-Dec-22 21:33N 37°53' E 023°33'0 0.0
2014-Dec-22 20:33N 37°53' E 023°33'4 3.9
2014-Dec-22 19:33N 37°57' E 023°33'5 4.6
2014-Dec-22 18:32N 38°02' E 023°36'0 0.0
2014-Dec-22 17:33N 38°02' E 023°36'0 0.0
2014-Dec-22 16:33N 38°02' E 023°36'0 0.0
2014-Dec-22 15:33N 38°02' E 023°36'1 0.7
2014-Dec-22 14:34N 38°01' E 023°35'4 3.7
2014-Dec-22 13:34N 37°58' E 023°35'5 4.8
2014-Dec-22 12:34N 37°53' E 023°32'0 0.0
2014-Dec-22 11:34N 37°53' E 023°32'0 0.0
2014-Dec-22 10:34N 37°53' E 023°32'0 0.0
2014-Dec-22 09:33N 37°53' E 023°32'5 4.6
2014-Dec-22 08:33N 37°57' E 023°35'  
2014-Dec-18 16:34N 37°55' E 023°34'5 5.0
2014-Dec-18 15:33N 37°52' E 023°30'0 0.0
2014-Dec-18 14:33N 37°52' E 023°30'0 0.1
2014-Dec-18 13:33N 37°52' E 023°30'0 0.0
2014-Dec-18 12:33N 37°52' E 023°30'1 0.5
2014-Dec-18 11:33N 37°52' E 023°30'6 6.3
2014-Dec-18 10:33N 37°57' E 023°35'0 0.3
2014-Dec-18 09:33N 37°58' E 023°35'4 4.3
2014-Dec-18 08:34N 37°54' E 023°33'4 4.0
2014-Dec-18 07:33N 37°50' E 023°31'0 0.1
2014-Dec-18 06:33N 37°50' E 023°31'0 0.1
2014-Dec-18 05:33N 37°50' E 023°31'0 0.1
2014-Dec-18 04:33N 37°50' E 023°31'0 0.0
2014-Dec-18 03:34N 37°50' E 023°31'6 5.6
2014-Dec-18 02:33N 37°55' E 023°34'2 2.4
2014-Dec-18 01:33N 37°57' E 023°35'0 0.0
2014-Dec-18 00:34N 37°57' E 023°35'0 0.0
2014-Dec-17 23:33N 37°57' E 023°35'0 0.0
2014-Dec-17 22:33N 37°57' E 023°35'0 0.0
2014-Dec-17 21:33N 37°57' E 023°35'0 0.0
2014-Dec-17 20:33N 37°57' E 023°35'0 0.0
2014-Dec-17 19:33N 37°57' E 023°35'1 0.1
2014-Dec-17 14:12N 37°58' E 023°35'0 0.0
2014-Dec-17 13:31N 37°58' E 023°35'0 0.0
2014-Dec-17 12:33N 37°58' E 023°35'5 3.4
2014-Dec-17 11:09N 38°02' E 023°32'0 0.3
2014-Dec-17 10:05N 38°02' E 023°31'2 0.9
2014-Dec-17 07:31N 38°01' E 023°34'0 0.1
2014-Dec-17 04:04N 38°02' E 023°35'0 0.0
2014-Dec-17 01:30N 38°02' E 023°35'0 0.0
2014-Dec-16 11:30N 38°02' E 023°35'0 0.0
2014-Dec-16 10:33N 38°02' E 023°35'0 0.0
2014-Dec-16 09:33N 38°02' E 023°35'4 4.4
2014-Dec-16 08:33N 37°58' E 023°33'1 1.3
2014-Dec-16 07:33N 37°58' E 023°35'0 0.1
2014-Dec-16 06:33N 37°58' E 023°35'  
2014-Dec-13 18:34N 37°57' E 023°35'4 4.4
2014-Dec-13 17:33N 37°53' E 023°33'0 0.0
2014-Dec-13 16:34N 37°53' E 023°33'0 0.0
2014-Dec-13 15:34N 37°53' E 023°33'4 4.4
2014-Dec-13 14:34N 37°57' E 023°35'1 0.2
2014-Dec-13 05:33N 37°55' E 023°34'4 3.8
2014-Dec-13 04:33N 37°52' E 023°32'0 0.0
2014-Dec-13 03:33N 37°52' E 023°32'0 0.0
2014-Dec-13 02:33N 37°52' E 023°32'0 0.0
2014-Dec-13 01:33N 37°52' E 023°32'  

Dump ship's entire track history